UAL1625 KORD-KOMA
Flight info
| Callsign | UAL1625 |
|---|---|
| Flight time | N/A |
| Altitude | 36000 |
| Route | OLINN OREOS OBENE DSM LANTK2 |
| Aircraft | B738/M-SDE2E3FGHIRWXY/LB1 |
Departure
| Time | 2026-05-07 19:57 |
|---|---|
| Airport | Chicago O'Hare International Airport (KORD) |
Arrival
| Time | N/A |
|---|---|
| Airport | Eppley Airfield (KOMA) |
| Time | Latitude | Longitude | Altitude | Speed | Heading |
|---|---|---|---|---|---|
| 2026-05-07 19:23 | 41.98204 | -87.90574 | 662 ft | 0 kts | 180° |
| 2026-05-07 19:35 | 41.98205 | -87.90574 | 662 ft | 0 kts | 180° |
| 2026-05-07 19:36 | 41.98218 | -87.90574 | 662 ft | 2 kts | 179° |
| 2026-05-07 19:36 | 41.98233 | -87.90574 | 661 ft | 2 kts | 179° |
| 2026-05-07 19:36 | 41.98248 | -87.90574 | 661 ft | 2 kts | 179° |
| 2026-05-07 19:36 | 41.98263 | -87.90575 | 661 ft | 2 kts | 179° |
| 2026-05-07 19:37 | 41.98277 | -87.90569 | 661 ft | 2 kts | 217° |
| 2026-05-07 19:37 | 41.98287 | -87.90554 | 661 ft | 2 kts | 246° |
| 2026-05-07 19:37 | 41.98290 | -87.90541 | 661 ft | 0 kts | 268° |
| 2026-05-07 19:37 | 41.98289 | -87.90530 | 661 ft | 0 kts | 271° |
| 2026-05-07 19:41 | 41.98290 | -87.90575 | 661 ft | 9 kts | 270° |
| 2026-05-07 19:41 | 41.98289 | -87.90660 | 661 ft | 9 kts | 262° |
| 2026-05-07 19:42 | 41.98278 | -87.90738 | 662 ft | 7 kts | 259° |
| 2026-05-07 19:42 | 41.98265 | -87.90813 | 662 ft | 11 kts | 254° |
| 2026-05-07 19:42 | 41.98222 | -87.90953 | 663 ft | 16 kts | 242° |
| 2026-05-07 19:42 | 41.98165 | -87.91069 | 664 ft | 12 kts | 230° |
| 2026-05-07 19:43 | 41.98111 | -87.91138 | 665 ft | 9 kts | 219° |
| 2026-05-07 19:43 | 41.98061 | -87.91183 | 665 ft | 7 kts | 210° |
| 2026-05-07 19:43 | 41.98017 | -87.91213 | 666 ft | 6 kts | 211° |
| 2026-05-07 19:43 | 41.97998 | -87.91255 | 666 ft | 5 kts | 268° |
| 2026-05-07 19:44 | 41.98009 | -87.91326 | 666 ft | 7 kts | 275° |
| 2026-05-07 19:44 | 41.97996 | -87.91384 | 666 ft | 6 kts | 233° |
| 2026-05-07 19:44 | 41.97927 | -87.91454 | 667 ft | 15 kts | 226° |
| 2026-05-07 19:44 | 41.97927 | -87.91580 | 668 ft | 13 kts | 283° |
| 2026-05-07 19:45 | 41.97947 | -87.91694 | 668 ft | 12 kts | 284° |
| 2026-05-07 19:45 | 41.97972 | -87.91835 | 669 ft | 16 kts | 280° |
| 2026-05-07 19:45 | 41.97989 | -87.91975 | 670 ft | 14 kts | 278° |
| 2026-05-07 19:45 | 41.97993 | -87.92104 | 670 ft | 13 kts | 269° |
| 2026-05-07 19:46 | 41.97993 | -87.92220 | 670 ft | 12 kts | 270° |
| 2026-05-07 19:46 | 41.97992 | -87.92366 | 671 ft | 16 kts | 270° |
| 2026-05-07 19:46 | 41.97993 | -87.92516 | 671 ft | 15 kts | 271° |
| 2026-05-07 19:46 | 41.97977 | -87.92645 | 671 ft | 13 kts | 229° |
| 2026-05-07 19:47 | 41.97886 | -87.92669 | 672 ft | 13 kts | 181° |
| 2026-05-07 19:47 | 41.97796 | -87.92671 | 672 ft | 12 kts | 181° |
| 2026-05-07 19:47 | 41.97716 | -87.92671 | 673 ft | 10 kts | 176° |
| 2026-05-07 19:47 | 41.97648 | -87.92667 | 673 ft | 9 kts | 179° |
| 2026-05-07 19:48 | 41.97588 | -87.92667 | 673 ft | 11 kts | 180° |
| 2026-05-07 19:48 | 41.97512 | -87.92670 | 673 ft | 13 kts | 182° |
| 2026-05-07 19:48 | 41.97423 | -87.92667 | 674 ft | 12 kts | 180° |
| 2026-05-07 19:48 | 41.97346 | -87.92669 | 674 ft | 10 kts | 181° |
| 2026-05-07 19:49 | 41.97266 | -87.92667 | 674 ft | 13 kts | 179° |
| 2026-05-07 19:49 | 41.97177 | -87.92667 | 674 ft | 11 kts | 180° |
| 2026-05-07 19:49 | 41.97102 | -87.92668 | 674 ft | 10 kts | 181° |
| 2026-05-07 19:49 | 41.97044 | -87.92637 | 674 ft | 8 kts | 123° |
| 2026-05-07 19:50 | 41.97035 | -87.92549 | 674 ft | 9 kts | 89° |
| 2026-05-07 19:50 | 41.97036 | -87.92458 | 673 ft | 9 kts | 89° |
| 2026-05-07 19:50 | 41.97037 | -87.92365 | 672 ft | 10 kts | 90° |
| 2026-05-07 19:50 | 41.97037 | -87.92272 | 672 ft | 10 kts | 90° |
| 2026-05-07 19:51 | 41.97037 | -87.92172 | 671 ft | 12 kts | 89° |
| 2026-05-07 19:51 | 41.97037 | -87.92059 | 671 ft | 12 kts | 89° |
| 2026-05-07 19:51 | 41.97037 | -87.91924 | 670 ft | 18 kts | 90° |
| 2026-05-07 19:51 | 41.97038 | -87.91753 | 670 ft | 17 kts | 90° |
| 2026-05-07 19:52 | 41.97038 | -87.91591 | 670 ft | 16 kts | 89° |
| 2026-05-07 19:52 | 41.97038 | -87.91436 | 669 ft | 15 kts | 90° |
| 2026-05-07 19:52 | 41.97038 | -87.91292 | 669 ft | 15 kts | 89° |
| 2026-05-07 19:52 | 41.97039 | -87.91155 | 669 ft | 14 kts | 90° |
| 2026-05-07 19:53 | 41.97038 | -87.91018 | 668 ft | 15 kts | 91° |
| 2026-05-07 19:53 | 41.97038 | -87.90880 | 668 ft | 14 kts | 88° |
| 2026-05-07 19:53 | 41.97039 | -87.90745 | 667 ft | 14 kts | 89° |
| 2026-05-07 19:53 | 41.97040 | -87.90617 | 666 ft | 13 kts | 90° |
| 2026-05-07 19:54 | 41.97040 | -87.90488 | 665 ft | 14 kts | 90° |
| 2026-05-07 19:54 | 41.97039 | -87.90337 | 663 ft | 20 kts | 91° |
| 2026-05-07 19:54 | 41.97041 | -87.90145 | 661 ft | 17 kts | 89° |
| 2026-05-07 19:54 | 41.97041 | -87.90000 | 659 ft | 15 kts | 90° |
| 2026-05-07 19:55 | 41.97040 | -87.89852 | 658 ft | 15 kts | 89° |
| 2026-05-07 19:55 | 41.97041 | -87.89703 | 656 ft | 16 kts | 90° |
| 2026-05-07 19:55 | 41.97011 | -87.89584 | 654 ft | 12 kts | 131° |
| 2026-05-07 19:55 | 41.96932 | -87.89562 | 654 ft | 11 kts | 188° |
| 2026-05-07 19:56 | 41.96906 | -87.89636 | 654 ft | 6 kts | 268° |
| 2026-05-07 19:56 | 41.96902 | -87.89730 | 655 ft | 30 kts | 265° |
| 2026-05-07 19:56 | 41.96891 | -87.90446 | 664 ft | 118 kts | 271° |
| 2026-05-07 19:56 | 41.96905 | -87.91846 | 872 ft | 172 kts | 267° |
| 2026-05-07 19:57 | 41.96946 | -87.93562 | 1533 ft | 197 kts | 269° |
| 2026-05-07 19:57 | 41.97011 | -87.95322 | 2512 ft | 192 kts | 270° |
| 2026-05-07 19:57 | 41.96971 | -87.97174 | 3050 ft | 208 kts | 263° |
| 2026-05-07 19:57 | 41.96795 | -87.99166 | 3637 ft | 224 kts | 263° |
| 2026-05-07 19:58 | 41.96622 | -88.01292 | 4373 ft | 238 kts | 264° |
| 2026-05-07 19:58 | 41.96470 | -88.03536 | 5218 ft | 246 kts | 265° |
| 2026-05-07 19:58 | 41.96326 | -88.05823 | 6170 ft | 250 kts | 265° |
| 2026-05-07 19:58 | 41.96183 | -88.08119 | 7135 ft | 252 kts | 265° |
| 2026-05-07 19:59 | 41.96030 | -88.10440 | 8124 ft | 253 kts | 265° |
| 2026-05-07 19:59 | 41.95872 | -88.12771 | 9061 ft | 256 kts | 266° |
| 2026-05-07 19:59 | 41.95712 | -88.15160 | 9998 ft | 258 kts | 266° |
| 2026-05-07 19:59 | 41.95552 | -88.17567 | 10755 ft | 266 kts | 266° |
| 2026-05-07 20:00 | 41.95391 | -88.20083 | 11349 ft | 279 kts | 266° |
| 2026-05-07 20:00 | 41.95222 | -88.22707 | 12114 ft | 286 kts | 266° |
| 2026-05-07 20:00 | 41.95050 | -88.25362 | 12954 ft | 290 kts | 266° |
| 2026-05-07 20:00 | 41.94874 | -88.28075 | 13821 ft | 293 kts | 267° |
| 2026-05-07 20:01 | 41.94697 | -88.30794 | 14637 ft | 296 kts | 267° |
| 2026-05-07 20:01 | 41.94519 | -88.33532 | 15436 ft | 300 kts | 267° |
| 2026-05-07 20:01 | 41.94336 | -88.36322 | 16307 ft | 301 kts | 267° |
| 2026-05-07 20:01 | 41.94149 | -88.39126 | 17061 ft | 305 kts | 268° |
| 2026-05-07 20:02 | 41.93962 | -88.41953 | 17842 ft | 307 kts | 268° |
| 2026-05-07 20:02 | 41.93773 | -88.44781 | 18592 ft | 310 kts | 268° |
| 2026-05-07 20:02 | 41.93580 | -88.47662 | 19282 ft | 313 kts | 268° |
| 2026-05-07 20:02 | 41.93386 | -88.50555 | 20051 ft | 313 kts | 268° |
| 2026-05-07 20:03 | 41.93190 | -88.53476 | 20742 ft | 315 kts | 268° |
| 2026-05-07 20:03 | 41.92993 | -88.56424 | 21411 ft | 317 kts | 269° |
| 2026-05-07 20:03 | 41.92797 | -88.59352 | 22065 ft | 319 kts | 269° |
| 2026-05-07 20:03 | 41.92597 | -88.62317 | 22707 ft | 320 kts | 269° |
| 2026-05-07 20:04 | 41.92398 | -88.65265 | 23291 ft | 323 kts | 269° |
| 2026-05-07 20:04 | 41.92194 | -88.68259 | 23869 ft | 325 kts | 269° |
| 2026-05-07 20:04 | 41.91986 | -88.71297 | 24450 ft | 326 kts | 269° |
| 2026-05-07 20:04 | 41.91777 | -88.74361 | 25033 ft | 327 kts | 269° |
| 2026-05-07 20:05 | 41.91569 | -88.77371 | 25550 ft | 329 kts | 269° |
| 2026-05-07 20:05 | 41.91359 | -88.80429 | 26108 ft | 329 kts | 269° |
| 2026-05-07 20:05 | 41.91189 | -88.83513 | 26498 ft | 332 kts | 271° |
| 2026-05-07 20:05 | 41.91087 | -88.86603 | 27011 ft | 332 kts | 271° |
| 2026-05-07 20:06 | 41.91007 | -88.89654 | 27557 ft | 330 kts | 272° |
| 2026-05-07 20:06 | 41.90925 | -88.92760 | 27958 ft | 333 kts | 272° |
| 2026-05-07 20:06 | 41.90840 | -88.95840 | 28406 ft | 334 kts | 272° |
| 2026-05-07 20:06 | 41.90747 | -88.98969 | 28831 ft | 336 kts | 271° |
| 2026-05-07 20:07 | 41.90650 | -89.02110 | 29211 ft | 338 kts | 272° |
| 2026-05-07 20:07 | 41.90550 | -89.05232 | 29680 ft | 337 kts | 271° |
| 2026-05-07 20:07 | 41.90446 | -89.08390 | 30069 ft | 339 kts | 271° |
| 2026-05-07 20:07 | 41.90342 | -89.11513 | 30418 ft | 341 kts | 271° |
| 2026-05-07 20:08 | 41.90236 | -89.14718 | 30780 ft | 343 kts | 271° |
| 2026-05-07 20:08 | 41.90128 | -89.17918 | 31116 ft | 345 kts | 271° |
| 2026-05-07 20:08 | 41.90014 | -89.21130 | 31417 ft | 348 kts | 270° |
| 2026-05-07 20:08 | 41.89800 | -89.24403 | 31838 ft | 349 kts | 268° |
| 2026-05-07 20:09 | 41.89491 | -89.27617 | 32242 ft | 348 kts | 267° |
| 2026-05-07 20:09 | 41.89147 | -89.30861 | 32612 ft | 347 kts | 266° |
| 2026-05-07 20:09 | 41.88804 | -89.34078 | 32997 ft | 345 kts | 266° |
| 2026-05-07 20:10 | 41.88144 | -89.40487 | 33590 ft | 345 kts | 266° |
| 2026-05-07 20:10 | 41.87823 | -89.43692 | 33900 ft | 346 kts | 267° |
| 2026-05-07 20:10 | 41.87501 | -89.46930 | 34202 ft | 347 kts | 267° |
| 2026-05-07 20:10 | 41.87185 | -89.50139 | 34475 ft | 348 kts | 266° |
| 2026-05-07 20:11 | 41.86869 | -89.53329 | 34761 ft | 348 kts | 266° |
| 2026-05-07 20:11 | 41.86546 | -89.56587 | 35043 ft | 349 kts | 267° |
| 2026-05-07 20:11 | 41.86230 | -89.59777 | 35342 ft | 348 kts | 266° |
| 2026-05-07 20:11 | 41.85910 | -89.63000 | 35670 ft | 347 kts | 266° |
| 2026-05-07 20:12 | 41.85587 | -89.66235 | 35886 ft | 348 kts | 266° |
| 2026-05-07 20:12 | 41.84940 | -89.72723 | 35903 ft | 351 kts | 266° |
| 2026-05-07 20:13 | 41.84355 | -89.79177 | 35908 ft | 348 kts | 267° |
| 2026-05-07 20:13 | 41.83798 | -89.85635 | 35910 ft | 347 kts | 267° |
| 2026-05-07 20:14 | 41.83237 | -89.92023 | 35897 ft | 346 kts | 267° |
| 2026-05-07 20:14 | 41.82668 | -89.98453 | 35908 ft | 347 kts | 267° |
| 2026-05-07 20:15 | 41.82095 | -90.04827 | 35915 ft | 345 kts | 267° |
| 2026-05-07 20:15 | 41.81515 | -90.11245 | 35905 ft | 347 kts | 266° |
| 2026-05-07 20:16 | 41.80931 | -90.17641 | 35921 ft | 345 kts | 267° |
| 2026-05-07 20:16 | 41.80338 | -90.24084 | 35913 ft | 347 kts | 267° |
| 2026-05-07 20:17 | 41.79749 | -90.30473 | 35924 ft | 347 kts | 267° |
| 2026-05-07 20:17 | 41.79259 | -90.35757 | 35910 ft | 348 kts | 267° |
| 2026-05-07 20:18 | 41.78659 | -90.42183 | 35916 ft | 346 kts | 266° |
| 2026-05-07 20:18 | 41.78061 | -90.48584 | 35920 ft | 348 kts | 267° |
| 2026-05-07 20:19 | 41.77454 | -90.55003 | 35914 ft | 345 kts | 267° |
| 2026-05-07 20:19 | 41.76849 | -90.61372 | 35930 ft | 347 kts | 267° |
| 2026-05-07 20:20 | 41.76231 | -90.67833 | 35917 ft | 347 kts | 266° |
| 2026-05-07 20:20 | 41.75614 | -90.74230 | 35907 ft | 346 kts | 266° |
| 2026-05-07 20:21 | 41.74993 | -90.80622 | 35907 ft | 347 kts | 267° |
| 2026-05-07 20:21 | 41.74372 | -90.87003 | 35911 ft | 348 kts | 266° |
| 2026-05-07 20:22 | 41.73748 | -90.93396 | 35916 ft | 347 kts | 266° |
| 2026-05-07 20:22 | 41.73113 | -90.99830 | 35903 ft | 348 kts | 266° |
| 2026-05-07 20:23 | 41.72480 | -91.06225 | 35904 ft | 348 kts | 266° |
| 2026-05-07 20:23 | 41.71844 | -91.12630 | 35904 ft | 348 kts | 266° |
| 2026-05-07 20:24 | 41.71201 | -91.19046 | 35905 ft | 348 kts | 267° |
| 2026-05-07 20:24 | 41.70558 | -91.25407 | 35910 ft | 348 kts | 266° |
| 2026-05-07 20:25 | 41.69908 | -91.31800 | 35909 ft | 347 kts | 267° |
| 2026-05-07 20:25 | 41.69252 | -91.38242 | 35915 ft | 350 kts | 266° |
| 2026-05-07 20:26 | 41.68594 | -91.44648 | 35912 ft | 349 kts | 266° |
| 2026-05-07 20:26 | 41.67932 | -91.51078 | 35916 ft | 348 kts | 266° |
| 2026-05-07 20:26 | 41.67603 | -91.54260 | 35712 ft | 347 kts | 266° |
| 2026-05-07 20:27 | 41.67269 | -91.57474 | 36164 ft | 348 kts | 266° |
| 2026-05-07 20:27 | 41.66938 | -91.60666 | 35909 ft | 350 kts | 266° |
| 2026-05-07 20:27 | 41.66598 | -91.63938 | 35915 ft | 351 kts | 267° |
| 2026-05-07 20:28 | 41.65919 | -91.70413 | 35916 ft | 351 kts | 265° |
| 2026-05-07 20:28 | 41.65236 | -91.76860 | 35918 ft | 352 kts | 266° |
| 2026-05-07 20:29 | 41.64549 | -91.83333 | 35909 ft | 352 kts | 265° |
| 2026-05-07 20:29 | 41.63864 | -91.89769 | 35902 ft | 351 kts | 266° |
| 2026-05-07 20:30 | 41.63173 | -91.96220 | 35906 ft | 351 kts | 266° |
| 2026-05-07 20:30 | 41.62510 | -92.02396 | 35906 ft | 352 kts | 266° |
| 2026-05-07 20:31 | 41.61808 | -92.08845 | 35906 ft | 350 kts | 265° |
| 2026-05-07 20:31 | 41.61105 | -92.15285 | 35901 ft | 352 kts | 266° |
| 2026-05-07 20:32 | 41.60394 | -92.21777 | 35906 ft | 353 kts | 265° |
| 2026-05-07 20:32 | 41.59687 | -92.28203 | 35903 ft | 352 kts | 266° |
| 2026-05-07 20:33 | 41.59150 | -92.33064 | 35908 ft | 353 kts | 266° |
| 2026-05-07 20:33 | 41.58432 | -92.39541 | 35902 ft | 352 kts | 265° |
| 2026-05-07 20:34 | 41.57712 | -92.45998 | 35907 ft | 353 kts | 266° |
| 2026-05-07 20:34 | 41.56980 | -92.52530 | 35906 ft | 355 kts | 265° |
| 2026-05-07 20:35 | 41.56247 | -92.59029 | 35919 ft | 355 kts | 266° |
| 2026-05-07 20:35 | 41.55504 | -92.65558 | 35919 ft | 354 kts | 265° |
| 2026-05-07 20:36 | 41.54765 | -92.72047 | 35910 ft | 357 kts | 265° |
| 2026-05-07 20:36 | 41.54013 | -92.78591 | 35910 ft | 357 kts | 265° |
| 2026-05-07 20:37 | 41.53262 | -92.85118 | 35917 ft | 356 kts | 265° |
| 2026-05-07 20:37 | 41.52504 | -92.91670 | 35918 ft | 358 kts | 265° |
| 2026-05-07 20:38 | 41.51746 | -92.98186 | 35909 ft | 357 kts | 265° |
| 2026-05-07 20:38 | 41.51001 | -93.04565 | 35911 ft | 358 kts | 265° |
| 2026-05-07 20:39 | 41.50255 | -93.10893 | 35905 ft | 358 kts | 265° |
| 2026-05-07 20:39 | 41.49474 | -93.17493 | 35906 ft | 359 kts | 265° |
| 2026-05-07 20:40 | 41.48699 | -93.24019 | 35896 ft | 359 kts | 265° |
| 2026-05-07 20:40 | 41.47912 | -93.30620 | 35897 ft | 360 kts | 265° |
| 2026-05-07 20:41 | 41.47123 | -93.37186 | 35894 ft | 359 kts | 265° |
| 2026-05-07 20:41 | 41.46330 | -93.43767 | 35892 ft | 360 kts | 265° |
| 2026-05-07 20:42 | 41.45530 | -93.50372 | 35895 ft | 362 kts | 265° |